createdAt,value
2018-12-25T12:38:40.764Z,39.84
2018-12-25T12:41:08.675Z,41.83
2018-12-25T12:43:37.024Z,41.83
2018-12-25T12:46:06.949Z,39.22
2018-12-25T12:48:35.572Z,36.31
2018-12-25T12:51:04.525Z,36.31
2018-12-25T12:53:33.674Z,36.21
2018-12-25T12:56:02.088Z,36.78
2018-12-25T12:58:30.659Z,36.42
2018-12-25T13:00:58.315Z,36.71
2018-12-25T13:03:27.562Z,37.12
2018-12-25T13:05:55.992Z,37.59
2018-12-25T13:08:24.676Z,37.90
2018-12-25T13:10:53.382Z,37.55
2018-12-25T13:13:22.866Z,37.55
2018-12-25T13:15:50.749Z,37.22
2018-12-25T13:18:19.578Z,37.22
2018-12-25T13:22:54.111Z,36.80
2018-12-25T13:25:17.925Z,36.80
2018-12-25T13:27:45.746Z,36.90
2018-12-25T13:30:15.230Z,36.91
2018-12-25T13:32:44.402Z,36.77
2018-12-25T13:35:11.815Z,36.70
2018-12-25T13:37:39.484Z,36.46
2018-12-25T13:40:06.895Z,36.38
2018-12-25T13:42:34.494Z,36.40
2018-12-25T13:45:01.996Z,36.69
2018-12-25T13:47:29.416Z,36.73
2018-12-25T13:49:56.864Z,36.92
2018-12-25T13:52:25.100Z,37.36
2018-12-25T13:54:53.146Z,37.36
2018-12-25T13:57:20.734Z,37.61
2018-12-25T13:59:48.804Z,37.52
2018-12-25T14:02:17.547Z,37.47
2018-12-25T14:04:44.839Z,38.06
2018-12-25T14:07:12.893Z,36.88
2018-12-25T14:09:40.740Z,35.19
2018-12-25T14:12:07.620Z,35.19
2018-12-25T14:14:34.770Z,34.92
2018-12-25T14:17:02.952Z,34.56
2018-12-25T14:19:31.329Z,35.05
2018-12-25T14:21:59.238Z,35.51
2018-12-25T14:24:26.999Z,36.00
2018-12-25T14:27:45.485Z,36.00
2018-12-25T14:30:12.785Z,35.93
2018-12-25T14:32:40.238Z,36.05
2018-12-25T14:35:07.515Z,36.18
2018-12-25T14:37:34.983Z,36.50
2018-12-25T14:40:02.421Z,36.93
2018-12-25T14:42:30.189Z,36.96
2018-12-25T14:44:58.425Z,37.48
2018-12-25T14:47:26.426Z,37.52
2018-12-25T14:49:54.524Z,37.24
2018-12-25T14:52:22.601Z,42.15
2018-12-25T14:54:50.606Z,42.35
2018-12-25T14:57:17.866Z,42.77
2018-12-25T14:59:45.543Z,43.21
2018-12-25T15:02:12.981Z,43.21
2018-12-25T15:04:40.529Z,42.84
2018-12-25T15:07:08.466Z,43.92
2018-12-25T15:09:36.350Z,43.01
2018-12-25T15:12:04.050Z,42.62
2018-12-25T15:14:31.691Z,42.29
2018-12-25T15:17:43.389Z,40.97
2018-12-25T15:20:11.631Z,41.08
2018-12-25T15:22:40.662Z,41.72
2018-12-25T15:25:08.417Z,41.28
2018-12-25T15:27:36.431Z,41.19
2018-12-25T15:30:04.480Z,41.75
2018-12-25T15:32:31.760Z,41.80
2018-12-25T15:34:58.709Z,41.98
2018-12-25T15:37:26.994Z,42.41
2018-12-25T15:41:27.239Z,47.28
2018-12-25T15:43:54.714Z,48.75
2018-12-25T15:46:21.846Z,49.63
2018-12-25T15:48:49.237Z,50.30
2018-12-25T15:51:16.600Z,50.30
2018-12-25T15:53:44.060Z,50.51
2018-12-25T15:56:11.699Z,49.62
2018-12-25T15:58:38.602Z,47.61
2018-12-25T16:01:06.410Z,46.90
2018-12-25T16:03:33.936Z,46.13
2018-12-25T16:06:01.375Z,45.76
2018-12-25T16:08:28.966Z,45.72
2018-12-25T16:10:56.811Z,45.60
2018-12-25T16:13:25.383Z,45.39
2018-12-25T16:15:53.938Z,45.22
2018-12-25T16:18:22.416Z,44.76
2018-12-25T16:20:50.335Z,50.61
2018-12-25T16:23:17.718Z,49.27
2018-12-25T16:25:50.072Z,50.23
2018-12-25T16:28:17.744Z,50.09
2018-12-25T16:30:45.518Z,49.29
2018-12-25T16:33:13.225Z,49.75
2018-12-25T16:35:42.091Z,50.86
2018-12-25T16:38:09.800Z,49.43
2018-12-25T16:40:38.849Z,50.13
2018-12-25T16:43:06.488Z,49.27
2018-12-25T16:45:34.722Z,49.27
2018-12-25T16:48:02.496Z,50.51
2018-12-25T16:50:29.795Z,50.64
2018-12-25T16:52:57.580Z,50.38
2018-12-25T16:55:25.367Z,51.07
2018-12-25T16:57:52.936Z,50.50
2018-12-25T17:00:21.439Z,50.35
2018-12-25T17:02:50.243Z,52.42
2018-12-25T17:05:18.460Z,53.73
2018-12-25T17:07:45.985Z,52.66
2018-12-25T17:10:13.400Z,53.15
2018-12-25T17:12:40.770Z,55.07
2018-12-25T17:15:07.820Z,54.90
2018-12-25T17:17:35.856Z,55.69
2018-12-25T17:20:03.482Z,56.37
2018-12-25T17:22:31.434Z,56.35
2018-12-25T17:24:59.803Z,56.35
2018-12-25T17:27:27.611Z,55.71
2018-12-25T17:29:55.244Z,55.71
2018-12-25T17:32:22.888Z,52.64
2018-12-25T17:34:51.359Z,53.01
2018-12-25T17:37:18.632Z,52.21
2018-12-25T17:39:46.248Z,51.24
2018-12-25T17:42:14.460Z,50.45
2018-12-25T17:44:42.337Z,50.21
2018-12-25T17:47:09.589Z,49.77
2018-12-25T17:49:37.963Z,48.97
2018-12-25T17:52:05.765Z,48.60
2018-12-25T17:54:32.738Z,48.72
2018-12-25T17:57:01.051Z,49.25
2018-12-25T17:59:29.247Z,51.31
2018-12-25T18:01:57.370Z,49.88
2018-12-25T18:04:25.658Z,49.25
2018-12-25T18:06:53.021Z,57.63
2018-12-25T18:09:21.503Z,58.17
2018-12-25T18:11:50.040Z,56.89
2018-12-25T18:14:18.017Z,56.67
2018-12-25T18:16:45.507Z,57.17
2018-12-25T18:19:13.765Z,56.99
2018-12-25T18:21:40.990Z,56.99
2018-12-25T18:24:08.726Z,56.70
2018-12-25T18:26:36.803Z,55.56
2018-12-25T18:29:04.122Z,55.73
2018-12-25T18:31:31.934Z,55.61
2018-12-25T18:34:00.529Z,54.55
2018-12-25T18:36:27.879Z,54.36
2018-12-25T18:38:55.880Z,55.40
2018-12-25T18:41:24.331Z,55.43
2018-12-25T18:43:52.490Z,55.43
2018-12-25T18:46:19.838Z,51.66
2018-12-25T18:48:48.249Z,51.41
2018-12-25T18:51:16.752Z,45.51
2018-12-25T18:53:43.612Z,45.36
2018-12-25T18:56:11.658Z,46.38
2018-12-25T18:58:39.723Z,46.84
2018-12-25T19:01:06.604Z,47.69
2018-12-25T19:03:35.003Z,48.19
2018-12-25T19:06:02.883Z,48.22
2018-12-25T19:08:30.718Z,47.22
2018-12-25T19:10:58.618Z,47.22
2018-12-25T19:13:25.967Z,45.93
2018-12-25T19:15:56.628Z,44.00
2018-12-25T19:18:25.018Z,44.21
2018-12-25T19:20:52.990Z,44.28
2018-12-25T19:23:20.968Z,45.51
2018-12-25T19:25:48.873Z,46.12
2018-12-25T19:28:16.954Z,45.07
2018-12-25T19:30:44.257Z,45.07
2018-12-25T19:33:11.510Z,44.76
2018-12-25T19:35:39.422Z,42.45
2018-12-25T19:38:07.797Z,41.84
2018-12-25T19:40:35.430Z,41.23
2018-12-25T19:43:40.288Z,40.22
2018-12-25T19:46:08.440Z,40.13
2018-12-25T19:48:36.419Z,40.02
2018-12-25T19:51:04.371Z,39.92
2018-12-25T19:53:32.109Z,39.79
2018-12-25T19:55:59.493Z,40.28
2018-12-25T19:58:27.765Z,40.92
2018-12-25T20:00:56.543Z,40.55
2018-12-25T20:03:41.003Z,41.46
2018-12-25T20:06:43.248Z,41.95
2018-12-25T20:10:03.248Z,41.33
2018-12-25T20:13:25.509Z,42.41
2018-12-25T20:16:46.501Z,43.33
2018-12-25T20:19:53.557Z,43.35
2018-12-25T20:23:16.447Z,43.75
2018-12-25T20:26:34.531Z,43.46
2018-12-25T20:30:08.322Z,42.75
2018-12-25T20:33:35.585Z,42.34
2018-12-25T20:37:12.593Z,42.06
2018-12-25T20:40:43.241Z,42.12
2018-12-25T20:44:09.463Z,42.19
2018-12-25T20:47:39.236Z,42.33
2018-12-25T20:51:17.507Z,42.06
2018-12-25T20:57:37.737Z,41.91
2018-12-25T21:02:41.766Z,41.88
2018-12-25T21:06:31.427Z,41.92
2018-12-25T21:10:07.767Z,40.32
2018-12-25T21:13:47.565Z,41.43
2018-12-25T21:17:25.247Z,41.46
2018-12-25T21:20:43.737Z,41.79
2018-12-25T21:23:48.597Z,42.01
2018-12-25T21:27:12.509Z,42.18
2018-12-25T21:29:40.785Z,42.19
2018-12-25T21:32:08.482Z,42.55
2018-12-25T21:34:35.897Z,42.41
2018-12-25T21:37:03.438Z,41.98
2018-12-25T21:39:31.615Z,42.37
2018-12-25T21:41:59.240Z,42.53
2018-12-25T21:44:27.408Z,42.31
2018-12-25T21:46:54.774Z,42.28
2018-12-25T21:49:22.647Z,42.49
2018-12-25T21:51:50.893Z,42.39
2018-12-25T21:54:18.239Z,42.63
2018-12-25T21:56:45.618Z,42.13
2018-12-25T21:59:13.422Z,42.26
2018-12-25T22:01:41.227Z,42.35
2018-12-25T22:04:10.499Z,42.25
2018-12-25T22:06:37.990Z,42.09
2018-12-25T22:09:06.392Z,42.35
2018-12-25T22:11:34.485Z,42.09
2018-12-25T22:14:01.791Z,41.92
2018-12-25T22:16:29.249Z,41.96
2018-12-25T22:18:57.517Z,41.66
2018-12-25T22:21:24.808Z,42.11
2018-12-25T22:23:52.525Z,41.96
2018-12-25T22:26:20.787Z,41.83
2018-12-25T22:28:49.322Z,41.87
2018-12-25T22:31:17.429Z,41.97
2018-12-25T22:33:45.020Z,41.54
2018-12-25T22:36:12.454Z,41.41
2018-12-25T22:38:40.384Z,41.61
2018-12-25T22:41:07.921Z,40.72
2018-12-25T22:43:35.502Z,40.89
2018-12-25T22:46:02.886Z,40.68
2018-12-25T22:48:30.408Z,41.45
2018-12-25T22:50:57.772Z,41.45
2018-12-25T22:53:24.902Z,41.46
2018-12-25T22:55:53.018Z,41.55
2018-12-25T22:58:22.881Z,41.57
2018-12-25T23:00:50.317Z,41.49
2018-12-25T23:03:17.615Z,41.49
2018-12-25T23:05:44.837Z,41.62
2018-12-25T23:08:13.233Z,41.75
2018-12-25T23:10:40.709Z,41.75
2018-12-25T23:13:08.393Z,41.88
2018-12-25T23:15:36.706Z,41.75
2018-12-25T23:18:04.393Z,41.60
2018-12-25T23:20:32.709Z,41.35
2018-12-25T23:23:00.240Z,41.21
2018-12-25T23:25:28.481Z,41.16
2018-12-25T23:27:56.482Z,41.12
2018-12-25T23:30:24.820Z,40.70
2018-12-25T23:32:52.883Z,40.94
2018-12-25T23:35:20.867Z,41.62
2018-12-25T23:37:48.245Z,41.48
2018-12-25T23:40:15.857Z,41.48
2018-12-25T23:42:43.483Z,41.56
2018-12-25T23:45:11.726Z,41.56
2018-12-25T23:47:39.239Z,41.76
2018-12-25T23:50:07.528Z,41.45
2018-12-25T23:52:35.597Z,41.62
2018-12-25T23:55:02.873Z,41.78
2018-12-25T23:57:31.429Z,41.99
2018-12-25T23:59:59.078Z,41.99
